WZZ60QL EDLW-EPWA
Flight info
| Callsign | WZZ60QL |
|---|---|
| Flight time | 1h 28m |
| Altitude | 37000 |
| Route | HMM7Q HMM M170 DOMJO Z851 ROBEG L980 HLZ DCT SUBIX DCT MOLIL P851 BIMPA |
| Aircraft | A321/M-SDE1E2E3FGIJ1J4RWXY/LB1 |
Departure
| Time | 2026-05-07 14:09 |
|---|---|
| Airport | Dortmund Airport (EDLW) |
Arrival
| Time | 2026-05-07 15:38 |
|---|---|
| Airport | Warsaw Chopin Airport (EPWA) |
| Time | Latitude | Longitude | Altitude | Speed | Heading |
|---|---|---|---|---|---|
| 2026-05-07 13:44 | 51.51416 | 7.60999 | 407 ft | 0 kts | 143° |
| 2026-05-07 14:00 | 51.51423 | 7.60992 | 434 ft | 4 kts | 144° |
| 2026-05-07 14:00 | 51.51443 | 7.60969 | 420 ft | 2 kts | 145° |
| 2026-05-07 14:00 | 51.51459 | 7.60942 | 425 ft | 4 kts | 99° |
| 2026-05-07 14:00 | 51.51456 | 7.60902 | 427 ft | 4 kts | 63° |
| 2026-05-07 14:01 | 51.51452 | 7.60889 | 421 ft | 0 kts | 60° |
| 2026-05-07 14:04 | 51.51452 | 7.60890 | 421 ft | 1 kts | 60° |
| 2026-05-07 14:04 | 51.51458 | 7.60907 | 428 ft | 3 kts | 60° |
| 2026-05-07 14:04 | 51.51470 | 7.60941 | 421 ft | 4 kts | 60° |
| 2026-05-07 14:05 | 51.51484 | 7.60982 | 424 ft | 5 kts | 60° |
| 2026-05-07 14:05 | 51.51505 | 7.61037 | 420 ft | 6 kts | 52° |
| 2026-05-07 14:05 | 51.51542 | 7.61055 | 432 ft | 5 kts | 358° |
| 2026-05-07 14:05 | 51.51570 | 7.61019 | 430 ft | 6 kts | 282° |
| 2026-05-07 14:06 | 51.51555 | 7.60951 | 421 ft | 8 kts | 241° |
| 2026-05-07 14:06 | 51.51518 | 7.60843 | 413 ft | 15 kts | 240° |
| 2026-05-07 14:06 | 51.51459 | 7.60677 | 415 ft | 18 kts | 240° |
| 2026-05-07 14:06 | 51.51412 | 7.60543 | 418 ft | 9 kts | 240° |
| 2026-05-07 14:07 | 51.51385 | 7.60466 | 415 ft | 6 kts | 241° |
| 2026-05-07 14:07 | 51.51371 | 7.60424 | 416 ft | 5 kts | 242° |
| 2026-05-07 14:07 | 51.51361 | 7.60387 | 417 ft | 3 kts | 253° |
| 2026-05-07 14:07 | 51.51359 | 7.60352 | 419 ft | 4 kts | 272° |
| 2026-05-07 14:08 | 51.51379 | 7.60295 | 408 ft | 8 kts | 321° |
| 2026-05-07 14:08 | 51.51427 | 7.60248 | 409 ft | 6 kts | 329° |
| 2026-05-07 14:08 | 51.51481 | 7.60241 | 413 ft | 8 kts | 28° |
| 2026-05-07 14:08 | 51.51498 | 7.60272 | 413 ft | 1 kts | 58° |
| 2026-05-07 14:09 | 51.51510 | 7.60305 | 413 ft | 22 kts | 60° |
| 2026-05-07 14:09 | 51.51721 | 7.60903 | 413 ft | 98 kts | 60° |
| 2026-05-07 14:09 | 51.52155 | 7.62136 | 510 ft | 148 kts | 60° |
| 2026-05-07 14:09 | 51.52635 | 7.63554 | 1331 ft | 142 kts | 58° |
| 2026-05-07 14:10 | 51.53137 | 7.64995 | 1858 ft | 156 kts | 58° |
| 2026-05-07 14:10 | 51.53718 | 7.66601 | 2174 ft | 175 kts | 57° |
| 2026-05-07 14:10 | 51.54371 | 7.68368 | 2478 ft | 197 kts | 58° |
| 2026-05-07 14:10 | 51.55090 | 7.70360 | 2943 ft | 206 kts | 59° |
| 2026-05-07 14:11 | 51.55781 | 7.72349 | 3662 ft | 204 kts | 59° |
| 2026-05-07 14:11 | 51.56494 | 7.74406 | 4036 ft | 220 kts | 59° |
| 2026-05-07 14:11 | 51.57265 | 7.76614 | 4651 ft | 230 kts | 59° |
| 2026-05-07 14:11 | 51.58122 | 7.78795 | 5423 ft | 232 kts | 43° |
| 2026-05-07 14:12 | 51.59489 | 7.80009 | 6096 ft | 234 kts | 9° |
| 2026-05-07 14:12 | 51.61183 | 7.80075 | 6451 ft | 255 kts | 352° |
| 2026-05-07 14:12 | 51.62961 | 7.79531 | 7053 ft | 263 kts | 346° |
| 2026-05-07 14:12 | 51.64776 | 7.78774 | 7806 ft | 267 kts | 344° |
| 2026-05-07 14:13 | 51.66557 | 7.77996 | 8564 ft | 271 kts | 345° |
| 2026-05-07 14:13 | 51.68404 | 7.77218 | 9300 ft | 276 kts | 345° |
| 2026-05-07 14:13 | 51.70287 | 7.76462 | 10025 ft | 281 kts | 346° |
| 2026-05-07 14:13 | 51.72242 | 7.75712 | 10404 ft | 299 kts | 346° |
| 2026-05-07 14:14 | 51.74343 | 7.74929 | 10589 ft | 322 kts | 346° |
| 2026-05-07 14:14 | 51.76581 | 7.74111 | 10986 ft | 335 kts | 347° |
| 2026-05-07 14:14 | 51.78871 | 7.73281 | 11619 ft | 340 kts | 347° |
| 2026-05-07 14:14 | 51.81196 | 7.72506 | 12310 ft | 344 kts | 352° |
| 2026-05-07 14:15 | 51.83603 | 7.72480 | 12989 ft | 349 kts | 6° |
| 2026-05-07 14:15 | 51.85972 | 7.73418 | 13661 ft | 354 kts | 20° |
| 2026-05-07 14:15 | 51.88160 | 7.75303 | 14275 ft | 360 kts | 34° |
| 2026-05-07 14:15 | 51.90034 | 7.78029 | 14838 ft | 365 kts | 45° |
| 2026-05-07 14:16 | 51.91801 | 7.80999 | 15473 ft | 368 kts | 45° |
| 2026-05-07 14:16 | 51.93592 | 7.83998 | 16093 ft | 372 kts | 44° |
| 2026-05-07 14:16 | 51.95398 | 7.87019 | 16726 ft | 375 kts | 45° |
| 2026-05-07 14:16 | 51.97218 | 7.90073 | 17331 ft | 379 kts | 45° |
| 2026-05-07 14:17 | 51.99057 | 7.93162 | 17920 ft | 383 kts | 45° |
| 2026-05-07 14:17 | 52.00905 | 7.96299 | 18497 ft | 387 kts | 48° |
| 2026-05-07 14:17 | 52.02500 | 7.99839 | 18998 ft | 391 kts | 59° |
| 2026-05-07 14:17 | 52.03660 | 8.03848 | 19550 ft | 394 kts | 70° |
| 2026-05-07 14:18 | 52.04421 | 8.08137 | 20070 ft | 398 kts | 75° |
| 2026-05-07 14:18 | 52.05136 | 8.12496 | 20632 ft | 400 kts | 75° |
| 2026-05-07 14:18 | 52.05855 | 8.16883 | 21182 ft | 403 kts | 75° |
| 2026-05-07 14:18 | 52.06577 | 8.21302 | 21725 ft | 407 kts | 76° |
| 2026-05-07 14:19 | 52.07305 | 8.25761 | 22266 ft | 409 kts | 76° |
| 2026-05-07 14:19 | 52.08038 | 8.30256 | 22788 ft | 413 kts | 76° |
| 2026-05-07 14:19 | 52.08774 | 8.34776 | 23310 ft | 415 kts | 76° |
| 2026-05-07 14:19 | 52.09514 | 8.39334 | 23775 ft | 418 kts | 75° |
| 2026-05-07 14:20 | 52.10259 | 8.43923 | 24222 ft | 420 kts | 76° |
| 2026-05-07 14:20 | 52.11004 | 8.48527 | 24644 ft | 422 kts | 76° |
| 2026-05-07 14:20 | 52.11750 | 8.53162 | 25056 ft | 425 kts | 75° |
| 2026-05-07 14:20 | 52.12496 | 8.57822 | 25481 ft | 427 kts | 76° |
| 2026-05-07 14:21 | 52.13246 | 8.62511 | 25878 ft | 429 kts | 76° |
| 2026-05-07 14:21 | 52.13995 | 8.67226 | 26298 ft | 431 kts | 76° |
| 2026-05-07 14:21 | 52.14745 | 8.71971 | 26678 ft | 434 kts | 76° |
| 2026-05-07 14:21 | 52.15497 | 8.76737 | 27095 ft | 436 kts | 76° |
| 2026-05-07 14:22 | 52.16255 | 8.81531 | 27491 ft | 438 kts | 76° |
| 2026-05-07 14:22 | 52.17013 | 8.86351 | 27879 ft | 440 kts | 76° |
| 2026-05-07 14:22 | 52.17761 | 8.91124 | 28251 ft | 443 kts | 76° |
| 2026-05-07 14:22 | 52.18523 | 8.95999 | 28616 ft | 445 kts | 76° |
| 2026-05-07 14:23 | 52.19290 | 9.00890 | 29019 ft | 446 kts | 75° |
| 2026-05-07 14:23 | 52.20073 | 9.05876 | 29384 ft | 449 kts | 75° |
| 2026-05-07 14:23 | 52.20848 | 9.10815 | 29763 ft | 450 kts | 75° |
| 2026-05-07 14:23 | 52.21615 | 9.15707 | 30098 ft | 453 kts | 75° |
| 2026-05-07 14:24 | 52.22394 | 9.20688 | 30436 ft | 454 kts | 75° |
| 2026-05-07 14:24 | 52.23137 | 9.25713 | 30729 ft | 457 kts | 79° |
| 2026-05-07 14:24 | 52.23496 | 9.30867 | 31052 ft | 458 kts | 87° |
| 2026-05-07 14:24 | 52.23635 | 9.36041 | 31461 ft | 457 kts | 87° |
| 2026-05-07 14:25 | 52.23781 | 9.41216 | 31876 ft | 456 kts | 87° |
| 2026-05-07 14:25 | 52.23934 | 9.46371 | 32295 ft | 454 kts | 86° |
| 2026-05-07 14:25 | 52.24088 | 9.51509 | 32694 ft | 454 kts | 86° |
| 2026-05-07 14:25 | 52.24238 | 9.56647 | 33109 ft | 452 kts | 86° |
| 2026-05-07 14:26 | 52.24385 | 9.61767 | 33503 ft | 451 kts | 86° |
| 2026-05-07 14:26 | 52.24529 | 9.66870 | 33910 ft | 450 kts | 87° |
| 2026-05-07 14:26 | 52.24668 | 9.71978 | 34264 ft | 450 kts | 87° |
| 2026-05-07 14:26 | 52.24798 | 9.77068 | 34526 ft | 450 kts | 87° |
| 2026-05-07 14:27 | 52.24924 | 9.82170 | 34774 ft | 451 kts | 87° |
| 2026-05-07 14:27 | 52.25074 | 9.87286 | 35005 ft | 452 kts | 84° |
| 2026-05-07 14:27 | 52.25570 | 9.92357 | 35252 ft | 452 kts | 78° |
| 2026-05-07 14:27 | 52.26218 | 9.97395 | 35453 ft | 454 kts | 78° |
| 2026-05-07 14:28 | 52.26865 | 10.02442 | 35678 ft | 455 kts | 78° |
| 2026-05-07 14:28 | 52.27511 | 10.07502 | 35911 ft | 456 kts | 78° |
| 2026-05-07 14:28 | 52.28152 | 10.12580 | 36115 ft | 457 kts | 79° |
| 2026-05-07 14:28 | 52.28790 | 10.17671 | 36356 ft | 458 kts | 79° |
| 2026-05-07 14:29 | 52.29426 | 10.22770 | 36576 ft | 458 kts | 79° |
| 2026-05-07 14:29 | 52.30061 | 10.27877 | 36813 ft | 458 kts | 79° |
| 2026-05-07 14:29 | 52.30689 | 10.32979 | 37017 ft | 459 kts | 79° |
| 2026-05-07 14:30 | 52.31944 | 10.43214 | 37077 ft | 459 kts | 79° |
| 2026-05-07 14:30 | 52.33204 | 10.53440 | 37091 ft | 459 kts | 79° |
| 2026-05-07 14:31 | 52.34438 | 10.63609 | 37082 ft | 459 kts | 79° |
| 2026-05-07 14:31 | 52.35670 | 10.73865 | 37090 ft | 459 kts | 79° |
| 2026-05-07 14:32 | 52.36455 | 10.84209 | 37091 ft | 458 kts | 89° |
| 2026-05-07 14:32 | 52.36647 | 10.94645 | 37092 ft | 459 kts | 89° |
| 2026-05-07 14:33 | 52.36840 | 11.05092 | 37095 ft | 460 kts | 89° |
| 2026-05-07 14:33 | 52.37025 | 11.15548 | 37099 ft | 460 kts | 89° |
| 2026-05-07 14:34 | 52.37206 | 11.26010 | 37098 ft | 460 kts | 89° |
| 2026-05-07 14:34 | 52.37374 | 11.36470 | 37098 ft | 460 kts | 89° |
| 2026-05-07 14:35 | 52.37501 | 11.45167 | 37094 ft | 460 kts | 90° |
| 2026-05-07 14:35 | 52.37643 | 11.55630 | 37094 ft | 460 kts | 90° |
| 2026-05-07 14:36 | 52.37785 | 11.66108 | 37094 ft | 460 kts | 90° |
| 2026-05-07 14:36 | 52.37918 | 11.76563 | 37086 ft | 459 kts | 90° |
| 2026-05-07 14:37 | 52.38043 | 11.87016 | 37081 ft | 459 kts | 90° |
| 2026-05-07 14:37 | 52.38207 | 12.02684 | 37073 ft | 459 kts | 90° |
| 2026-05-07 14:38 | 52.38307 | 12.13136 | 37076 ft | 459 kts | 90° |
| 2026-05-07 14:38 | 52.38402 | 12.23589 | 37079 ft | 459 kts | 90° |
| 2026-05-07 14:39 | 52.38485 | 12.34043 | 37080 ft | 459 kts | 90° |
| 2026-05-07 14:39 | 52.38550 | 12.44499 | 37080 ft | 460 kts | 91° |
| 2026-05-07 14:40 | 52.38614 | 12.54968 | 37073 ft | 460 kts | 91° |
| 2026-05-07 14:40 | 52.38668 | 12.65439 | 37076 ft | 460 kts | 91° |
| 2026-05-07 14:41 | 52.38711 | 12.75920 | 37080 ft | 461 kts | 91° |
| 2026-05-07 14:41 | 52.38741 | 12.86409 | 37079 ft | 461 kts | 91° |
| 2026-05-07 14:42 | 52.38765 | 12.96897 | 37080 ft | 461 kts | 91° |
| 2026-05-07 14:42 | 52.38780 | 13.07400 | 37071 ft | 462 kts | 92° |
| 2026-05-07 14:43 | 52.38787 | 13.17913 | 37075 ft | 462 kts | 92° |
| 2026-05-07 14:43 | 52.38790 | 13.28434 | 37075 ft | 462 kts | 92° |
| 2026-05-07 14:44 | 52.38777 | 13.38937 | 37076 ft | 462 kts | 92° |
| 2026-05-07 14:44 | 52.38756 | 13.49459 | 37076 ft | 462 kts | 92° |
| 2026-05-07 14:45 | 52.38726 | 13.59977 | 37065 ft | 462 kts | 92° |
| 2026-05-07 14:45 | 52.38680 | 13.70439 | 37071 ft | 463 kts | 93° |
| 2026-05-07 14:46 | 52.38628 | 13.80967 | 37072 ft | 462 kts | 93° |
| 2026-05-07 14:46 | 52.38571 | 13.91503 | 37067 ft | 462 kts | 93° |
| 2026-05-07 14:47 | 52.38501 | 14.02011 | 37057 ft | 462 kts | 93° |
| 2026-05-07 14:47 | 52.38424 | 14.12528 | 37057 ft | 462 kts | 94° |
| 2026-05-07 14:48 | 52.38343 | 14.23043 | 37055 ft | 462 kts | 94° |
| 2026-05-07 14:48 | 52.38253 | 14.33571 | 37059 ft | 463 kts | 94° |
| 2026-05-07 14:49 | 52.38147 | 14.44109 | 37055 ft | 463 kts | 94° |
| 2026-05-07 14:49 | 52.38021 | 14.54644 | 37061 ft | 463 kts | 94° |
| 2026-05-07 14:50 | 52.38464 | 14.65176 | 37062 ft | 466 kts | 85° |
| 2026-05-07 14:50 | 52.39282 | 14.75697 | 37053 ft | 466 kts | 85° |
| 2026-05-07 14:51 | 52.40087 | 14.86218 | 37054 ft | 466 kts | 85° |
| 2026-05-07 14:51 | 52.40866 | 14.96756 | 37056 ft | 466 kts | 86° |
| 2026-05-07 14:52 | 52.41627 | 15.07296 | 37044 ft | 466 kts | 86° |
| 2026-05-07 14:52 | 52.42389 | 15.17844 | 37061 ft | 466 kts | 86° |
| 2026-05-07 14:53 | 52.43145 | 15.28390 | 37055 ft | 466 kts | 86° |
| 2026-05-07 14:53 | 52.43890 | 15.38873 | 37057 ft | 466 kts | 86° |
| 2026-05-07 14:54 | 52.44624 | 15.49421 | 37059 ft | 466 kts | 86° |
| 2026-05-07 14:54 | 52.45339 | 15.59976 | 37038 ft | 466 kts | 87° |
| 2026-05-07 14:55 | 52.46058 | 15.70605 | 37049 ft | 466 kts | 87° |
| 2026-05-07 14:55 | 52.46765 | 15.81101 | 37055 ft | 466 kts | 87° |
| 2026-05-07 14:56 | 52.47462 | 15.91672 | 37059 ft | 466 kts | 87° |
| 2026-05-07 14:56 | 52.48149 | 16.02241 | 37055 ft | 466 kts | 87° |
| 2026-05-07 14:57 | 52.48830 | 16.12814 | 37057 ft | 466 kts | 87° |
| 2026-05-07 14:57 | 52.49501 | 16.23392 | 37024 ft | 467 kts | 88° |
| 2026-05-07 14:58 | 52.50151 | 16.33997 | 37033 ft | 468 kts | 88° |
| 2026-05-07 14:58 | 52.50796 | 16.44634 | 37044 ft | 469 kts | 88° |
| 2026-05-07 14:59 | 52.51445 | 16.55285 | 37053 ft | 469 kts | 88° |
| 2026-05-07 14:59 | 52.52083 | 16.65952 | 37069 ft | 469 kts | 88° |
| 2026-05-07 15:00 | 52.52706 | 16.76620 | 37053 ft | 470 kts | 89° |
| 2026-05-07 15:00 | 52.53322 | 16.87302 | 37068 ft | 470 kts | 88° |
| 2026-05-07 15:01 | 52.53934 | 16.97997 | 37040 ft | 470 kts | 89° |
| 2026-05-07 15:01 | 52.54533 | 17.08687 | 37042 ft | 470 kts | 89° |
| 2026-05-07 15:02 | 52.55122 | 17.19387 | 37042 ft | 470 kts | 89° |
| 2026-05-07 15:02 | 52.55702 | 17.30089 | 37026 ft | 470 kts | 89° |
| 2026-05-07 15:03 | 52.56272 | 17.40802 | 37040 ft | 471 kts | 89° |
| 2026-05-07 15:03 | 52.56827 | 17.51511 | 37041 ft | 470 kts | 89° |
| 2026-05-07 15:04 | 52.57370 | 17.62220 | 37044 ft | 470 kts | 90° |
| 2026-05-07 15:04 | 52.57911 | 17.72937 | 37040 ft | 470 kts | 90° |
| 2026-05-07 15:05 | 52.58438 | 17.83659 | 37010 ft | 471 kts | 90° |
| 2026-05-07 15:05 | 52.58955 | 17.94483 | 36547 ft | 481 kts | 90° |
| 2026-05-07 15:06 | 52.59019 | 17.99942 | 35976 ft | 474 kts | 99° |
| 2026-05-07 15:06 | 52.58624 | 18.05270 | 35392 ft | 467 kts | 107° |
| 2026-05-07 15:06 | 52.58019 | 18.10499 | 34803 ft | 466 kts | 107° |
| 2026-05-07 15:06 | 52.57414 | 18.15712 | 34338 ft | 463 kts | 107° |
| 2026-05-07 15:07 | 52.56813 | 18.20900 | 33808 ft | 461 kts | 108° |
| 2026-05-07 15:07 | 52.56214 | 18.26054 | 33318 ft | 457 kts | 108° |
| 2026-05-07 15:07 | 52.55621 | 18.31150 | 32841 ft | 451 kts | 108° |
| 2026-05-07 15:07 | 52.55033 | 18.36189 | 32362 ft | 447 kts | 108° |
| 2026-05-07 15:08 | 52.54455 | 18.41120 | 31892 ft | 443 kts | 108° |
| 2026-05-07 15:08 | 52.53873 | 18.46060 | 31425 ft | 439 kts | 108° |
| 2026-05-07 15:08 | 52.53290 | 18.50953 | 30957 ft | 435 kts | 109° |
| 2026-05-07 15:08 | 52.52707 | 18.55803 | 30495 ft | 430 kts | 109° |
| 2026-05-07 15:09 | 52.52127 | 18.60593 | 30032 ft | 426 kts | 109° |
| 2026-05-07 15:09 | 52.51553 | 18.65349 | 29554 ft | 422 kts | 109° |
| 2026-05-07 15:09 | 52.50989 | 18.70040 | 29119 ft | 416 kts | 109° |
| 2026-05-07 15:09 | 52.50432 | 18.74663 | 28691 ft | 411 kts | 109° |
| 2026-05-07 15:10 | 52.49878 | 18.79237 | 28270 ft | 406 kts | 108° |
| 2026-05-07 15:10 | 52.49326 | 18.83752 | 27861 ft | 402 kts | 108° |
| 2026-05-07 15:10 | 52.48774 | 18.88229 | 27467 ft | 398 kts | 108° |
| 2026-05-07 15:10 | 52.48224 | 18.92667 | 27074 ft | 396 kts | 108° |
| 2026-05-07 15:11 | 52.47678 | 18.97066 | 26687 ft | 392 kts | 108° |
| 2026-05-07 15:11 | 52.47135 | 19.01434 | 26312 ft | 389 kts | 108° |
| 2026-05-07 15:11 | 52.46596 | 19.05767 | 25932 ft | 386 kts | 108° |
| 2026-05-07 15:11 | 52.46060 | 19.10059 | 25549 ft | 383 kts | 108° |
| 2026-05-07 15:12 | 52.45527 | 19.14308 | 25183 ft | 380 kts | 108° |
| 2026-05-07 15:12 | 52.45001 | 19.18530 | 24809 ft | 377 kts | 108° |
| 2026-05-07 15:12 | 52.44477 | 19.22718 | 24434 ft | 374 kts | 108° |
| 2026-05-07 15:12 | 52.43954 | 19.26879 | 24043 ft | 371 kts | 108° |
| 2026-05-07 15:13 | 52.43434 | 19.31003 | 23659 ft | 369 kts | 108° |
| 2026-05-07 15:13 | 52.42913 | 19.35108 | 23221 ft | 367 kts | 108° |
| 2026-05-07 15:13 | 52.42396 | 19.39167 | 22832 ft | 363 kts | 108° |
| 2026-05-07 15:13 | 52.41883 | 19.43197 | 22433 ft | 359 kts | 108° |
| 2026-05-07 15:14 | 52.41372 | 19.47178 | 22044 ft | 356 kts | 108° |
| 2026-05-07 15:14 | 52.40863 | 19.51122 | 21650 ft | 352 kts | 108° |
| 2026-05-07 15:14 | 52.40357 | 19.55025 | 21261 ft | 349 kts | 108° |
| 2026-05-07 15:14 | 52.39855 | 19.58905 | 20875 ft | 347 kts | 108° |
| 2026-05-07 15:15 | 52.39358 | 19.62752 | 20481 ft | 345 kts | 107° |
| 2026-05-07 15:15 | 52.38864 | 19.66578 | 20096 ft | 342 kts | 107° |
| 2026-05-07 15:15 | 52.38372 | 19.70383 | 19705 ft | 340 kts | 107° |
| 2026-05-07 15:15 | 52.38018 | 19.74216 | 19317 ft | 343 kts | 97° |
| 2026-05-07 15:16 | 52.38088 | 19.78130 | 18926 ft | 346 kts | 86° |
| 2026-05-07 15:16 | 52.38605 | 19.82010 | 18662 ft | 359 kts | 75° |
| 2026-05-07 15:16 | 52.39512 | 19.85873 | 18362 ft | 367 kts | 71° |
| 2026-05-07 15:16 | 52.40456 | 19.89701 | 18040 ft | 367 kts | 71° |
| 2026-05-07 15:17 | 52.41406 | 19.93564 | 17730 ft | 365 kts | 71° |
| 2026-05-07 15:17 | 52.42351 | 19.97425 | 17433 ft | 364 kts | 71° |
| 2026-05-07 15:17 | 52.43290 | 20.01265 | 17133 ft | 363 kts | 71° |
| 2026-05-07 15:17 | 52.44222 | 20.05096 | 16838 ft | 361 kts | 71° |
| 2026-05-07 15:18 | 52.45146 | 20.08913 | 16548 ft | 359 kts | 71° |
| 2026-05-07 15:18 | 52.46066 | 20.12717 | 16248 ft | 358 kts | 71° |
| 2026-05-07 15:18 | 52.46979 | 20.16504 | 15954 ft | 357 kts | 71° |
| 2026-05-07 15:18 | 52.47887 | 20.20275 | 15660 ft | 355 kts | 71° |
| 2026-05-07 15:19 | 52.48794 | 20.24038 | 15362 ft | 354 kts | 71° |
| 2026-05-07 15:19 | 52.49687 | 20.27786 | 15075 ft | 352 kts | 73° |
| 2026-05-07 15:19 | 52.50214 | 20.31651 | 14825 ft | 341 kts | 89° |
| 2026-05-07 15:19 | 52.50140 | 20.35449 | 14589 ft | 327 kts | 104° |
| 2026-05-07 15:20 | 52.49532 | 20.38971 | 14442 ft | 318 kts | 118° |
| 2026-05-07 15:20 | 52.48513 | 20.42151 | 14210 ft | 314 kts | 125° |
| 2026-05-07 15:20 | 52.47424 | 20.45257 | 13958 ft | 314 kts | 125° |
| 2026-05-07 15:20 | 52.46342 | 20.48358 | 13701 ft | 313 kts | 125° |
| 2026-05-07 15:21 | 52.45264 | 20.51452 | 13469 ft | 312 kts | 124° |
| 2026-05-07 15:21 | 52.44188 | 20.54533 | 13220 ft | 311 kts | 124° |
| 2026-05-07 15:21 | 52.43116 | 20.57601 | 12984 ft | 309 kts | 124° |
| 2026-05-07 15:21 | 52.42047 | 20.60653 | 12742 ft | 309 kts | 124° |
| 2026-05-07 15:22 | 52.40980 | 20.63693 | 12509 ft | 308 kts | 124° |
| 2026-05-07 15:22 | 52.39915 | 20.66728 | 12266 ft | 307 kts | 124° |
| 2026-05-07 15:22 | 52.39211 | 20.68729 | 12103 ft | 306 kts | 124° |
| 2026-05-07 15:22 | 52.38149 | 20.71753 | 11824 ft | 306 kts | 124° |
| 2026-05-07 15:23 | 52.37094 | 20.74752 | 11515 ft | 304 kts | 124° |
| 2026-05-07 15:23 | 52.36038 | 20.77740 | 11205 ft | 302 kts | 123° |
| 2026-05-07 15:23 | 52.34986 | 20.80713 | 10908 ft | 302 kts | 123° |
| 2026-05-07 15:23 | 52.33937 | 20.83675 | 10603 ft | 300 kts | 123° |
| 2026-05-07 15:24 | 52.32892 | 20.86627 | 10274 ft | 299 kts | 123° |
| 2026-05-07 15:24 | 52.31850 | 20.89563 | 9980 ft | 298 kts | 123° |
| 2026-05-07 15:24 | 52.30795 | 20.92525 | 9660 ft | 297 kts | 123° |
| 2026-05-07 15:24 | 52.29757 | 20.95433 | 9347 ft | 296 kts | 123° |
| 2026-05-07 15:25 | 52.28738 | 20.98295 | 9069 ft | 295 kts | 123° |
| 2026-05-07 15:25 | 52.27649 | 21.01102 | 8768 ft | 291 kts | 131° |
| 2026-05-07 15:25 | 52.26238 | 21.03412 | 8478 ft | 286 kts | 146° |
| 2026-05-07 15:25 | 52.24557 | 21.05105 | 8192 ft | 282 kts | 155° |
| 2026-05-07 15:26 | 52.22823 | 21.06587 | 7903 ft | 281 kts | 155° |
| 2026-05-07 15:26 | 52.21092 | 21.08071 | 7625 ft | 280 kts | 155° |
| 2026-05-07 15:26 | 52.19374 | 21.09548 | 7371 ft | 277 kts | 155° |
| 2026-05-07 15:26 | 52.17706 | 21.10989 | 7243 ft | 266 kts | 155° |
| 2026-05-07 15:27 | 52.16099 | 21.12379 | 7119 ft | 257 kts | 155° |
| 2026-05-07 15:27 | 52.14546 | 21.13719 | 6950 ft | 250 kts | 155° |
| 2026-05-07 15:27 | 52.13033 | 21.15042 | 6785 ft | 245 kts | 155° |
| 2026-05-07 15:27 | 52.11534 | 21.16358 | 6589 ft | 244 kts | 155° |
| 2026-05-07 15:28 | 52.10043 | 21.17665 | 6372 ft | 243 kts | 155° |
| 2026-05-07 15:28 | 52.08552 | 21.18966 | 6142 ft | 243 kts | 155° |
| 2026-05-07 15:28 | 52.07063 | 21.20264 | 5918 ft | 243 kts | 155° |
| 2026-05-07 15:28 | 52.05576 | 21.21561 | 5695 ft | 242 kts | 155° |
| 2026-05-07 15:29 | 52.04093 | 21.22856 | 5468 ft | 242 kts | 155° |
| 2026-05-07 15:29 | 52.02615 | 21.24148 | 5255 ft | 241 kts | 155° |
| 2026-05-07 15:29 | 52.01140 | 21.25438 | 5031 ft | 241 kts | 155° |
| 2026-05-07 15:29 | 51.99670 | 21.26714 | 4929 ft | 240 kts | 155° |
| 2026-05-07 15:30 | 51.98192 | 21.27987 | 4871 ft | 241 kts | 155° |
| 2026-05-07 15:30 | 51.96710 | 21.29258 | 4737 ft | 243 kts | 156° |
| 2026-05-07 15:30 | 51.95109 | 21.29936 | 4384 ft | 235 kts | 185° |
| 2026-05-07 15:30 | 51.93587 | 21.29242 | 4122 ft | 224 kts | 214° |
| 2026-05-07 15:31 | 51.92467 | 21.27582 | 3939 ft | 222 kts | 238° |
| 2026-05-07 15:31 | 51.91915 | 21.25279 | 3764 ft | 221 kts | 264° |
| 2026-05-07 15:31 | 51.92057 | 21.22817 | 3655 ft | 223 kts | 289° |
| 2026-05-07 15:31 | 51.92864 | 21.20689 | 3605 ft | 225 kts | 312° |
| 2026-05-07 15:32 | 51.93958 | 21.18851 | 3562 ft | 227 kts | 312° |
| 2026-05-07 15:32 | 51.95037 | 21.17039 | 3535 ft | 217 kts | 312° |
| 2026-05-07 15:32 | 51.96064 | 21.15312 | 3431 ft | 209 kts | 312° |
| 2026-05-07 15:32 | 51.97149 | 21.13776 | 3326 ft | 207 kts | 323° |
| 2026-05-07 15:33 | 51.98372 | 21.12567 | 3225 ft | 206 kts | 328° |
| 2026-05-07 15:33 | 51.99588 | 21.11493 | 3158 ft | 193 kts | 330° |
| 2026-05-07 15:33 | 52.00756 | 21.10479 | 3066 ft | 187 kts | 329° |
| 2026-05-07 15:33 | 52.01895 | 21.09491 | 2998 ft | 184 kts | 330° |
| 2026-05-07 15:34 | 52.02978 | 21.08552 | 3000 ft | 171 kts | 330° |
| 2026-05-07 15:34 | 52.04008 | 21.07658 | 2892 ft | 166 kts | 328° |
| 2026-05-07 15:34 | 52.05017 | 21.06781 | 2721 ft | 163 kts | 330° |
| 2026-05-07 15:34 | 52.06020 | 21.05910 | 2506 ft | 163 kts | 330° |
| 2026-05-07 15:35 | 52.07009 | 21.05050 | 2307 ft | 160 kts | 330° |
| 2026-05-07 15:35 | 52.07989 | 21.04203 | 2075 ft | 159 kts | 331° |
| 2026-05-07 15:35 | 52.08955 | 21.03364 | 1885 ft | 156 kts | 332° |
| 2026-05-07 15:35 | 52.09895 | 21.02543 | 1700 ft | 149 kts | 332° |
| 2026-05-07 15:36 | 52.10790 | 21.01770 | 1447 ft | 143 kts | 333° |
| 2026-05-07 15:36 | 52.11671 | 21.01003 | 1239 ft | 143 kts | 332° |
| 2026-05-07 15:36 | 52.12545 | 21.00245 | 1034 ft | 142 kts | 331° |
| 2026-05-07 15:36 | 52.13412 | 20.99469 | 844 ft | 141 kts | 331° |
| 2026-05-07 15:37 | 52.14274 | 20.98716 | 654 ft | 140 kts | 331° |
| 2026-05-07 15:37 | 52.15131 | 20.97972 | 464 ft | 140 kts | 332° |
| 2026-05-07 15:37 | 52.15983 | 20.97227 | 351 ft | 133 kts | 332° |
| 2026-05-07 15:37 | 52.16669 | 20.96629 | 340 ft | 87 kts | 332° |
| 2026-05-07 15:38 | 52.17052 | 20.96293 | 335 ft | 38 kts | 332° |
| 2026-05-07 15:38 | 52.17236 | 20.96134 | 334 ft | 21 kts | 334° |
| 2026-05-07 15:38 | 52.17345 | 20.96077 | 336 ft | 15 kts | 349° |
| 2026-05-07 15:38 | 52.17446 | 20.96064 | 335 ft | 11 kts | 360° |
| 2026-05-07 15:39 | 52.17525 | 20.96063 | 339 ft | 7 kts | 0° |
| 2026-05-07 15:39 | 52.17568 | 20.96092 | 337 ft | 8 kts | 45° |
| 2026-05-07 15:39 | 52.17580 | 20.96157 | 338 ft | 7 kts | 81° |
| 2026-05-07 15:39 | 52.17566 | 20.96236 | 335 ft | 8 kts | 130° |
| 2026-05-07 15:40 | 52.17512 | 20.96291 | 337 ft | 10 kts | 152° |
| 2026-05-07 15:40 | 52.17462 | 20.96334 | 336 ft | 7 kts | 151° |
| 2026-05-07 15:40 | 52.17441 | 20.96406 | 336 ft | 8 kts | 85° |
| 2026-05-07 15:40 | 52.17465 | 20.96494 | 336 ft | 8 kts | 62° |
| 2026-05-07 15:41 | 52.17494 | 20.96559 | 333 ft | 8 kts | 44° |
| 2026-05-07 15:41 | 52.17531 | 20.96637 | 337 ft | 10 kts | 57° |
| 2026-05-07 15:41 | 52.17570 | 20.96740 | 337 ft | 12 kts | 58° |
| 2026-05-07 15:41 | 52.17608 | 20.96841 | 336 ft | 7 kts | 57° |
| 2026-05-07 15:42 | 52.17639 | 20.96893 | 339 ft | 7 kts | 27° |
| 2026-05-07 15:42 | 52.17684 | 20.96886 | 333 ft | 6 kts | 334° |
| 2026-05-07 15:42 | 52.17724 | 20.96844 | 339 ft | 8 kts | 327° |
| 2026-05-07 15:42 | 52.17758 | 20.96799 | 337 ft | 3 kts | 296° |
| 2026-05-07 15:43 | 52.17750 | 20.96763 | 336 ft | 4 kts | 238° |
| 2026-05-07 15:43 | 52.17742 | 20.96742 | 334 ft | 1 kts | 237° |
| 2026-05-07 15:43 | 52.17739 | 20.96734 | 336 ft | 0 kts | 237° |